Quantico MCAF /Turner field
KNYG : now visible

Airfield :











YOU CAN JOIN US ON...

 
LOGIN :

Register | Disclaimer

   EN    FR    IT 

 









Legend :    VFR   Marginal VFR   IFR   Intensive IFR   Very Intensive IFR
Visi :
Ceiling :
>= 8 km
>= 3000ft
5 to 8 km
1000 to 3000 ft
1500m to 5 km
500 to 1000 ft
800 to 1500m
200 to 500 ft
< 800m
< 200 ft
Symbols :   Thunderstorms  Fog  Heavy snow  Heavy precipitations  Wind > 20 kt







- Airport Elevation : 10 ft


KNYG - Quantico MCAF /Turner field

CURRENT METAR :
  • 211656Z AUTO 19005KT 10SM CLR 25/16 A3023 RMK AO2 SLP236 T02500161

EXPIRED METARs :
  • 211556Z AUTO 21004KT 10SM CLR 23/16 A3025 RMK AO2 SLP244 T02330156
  • 211456Z AUTO 16004KT 10SM CLR 18/15 A3026 RMK AO2 SLP249 T01830150 58001

TAF TAF KNYG
Valid from the 21 at 09:00 until the 22 at 09:00 UTC


2109/2209 30006KT 9999 FEW200 QNH3009INS
BECMG 2118/2120 VRB06KT 9999 SCT060 BKN100 QNH307INS T14/2111Z T26/2121Z
No reported NOTAMs for that airfield.



MET'MAP, your aeronautical weather chart ! - Copyright ORBIFLY December 2007 - Disclaimer

ORBIFLY MET'MAP TEAM :

Programming & Development : Alexandra Zaïnal
Concept & Development : Baudouin d'Aumeries
Co-Development & Prog : Marc-Olivier Méhu
Technical & hardware support : Manuel Goepfert

Contact : metmap@orbifly.com




SOURCES & CREDITS :

   NOAA       Earth
Advisory